Terminal Aerodrome Forecast
Issued by NWS Denver/Boulder, CO

Home | Current Version | Previous Version | Text Only | Print | Product List | Glossary On
Versions: 1 2 3 4 5 6 7 8 9 10 11 12 13 14 15 16 17 18 19 20 21 22 23 24 25 26 27 28 29 30
000
FTUS45 KBOU 231513 AAB
TAFDEN
TAF AMD
KDEN 231513Z 2315/2418 25006KT P6SM FEW120
     FM231700 31006KT P6SM SCT120
     FM231900 02006KT P6SM SCT090 BKN120
     FM232300 07006KT P6SM VCTS SCT090CB BKN130
     FM240300 18010KT P6SM FEW090 SCT130 BKN200
     FM240600 22010KT P6SM SCT130 SCT200
     FM241600 05005KT P6SM SCT130 SCT200=

USA.gov is the U.S. government's official web portal to all federal, state and local government web resources and services.